Idjevan, Armenia

6:25 PM AMT on September 05, 2015 (GMT +0400)
Tbilisi International Air | | Change Station
CLOSE
Current Station
Airport
Location: Tbilisi International Air,
Elevation: 1624 ft
Nearby Weather Stations

Elev 1624 ft 41.67 °N, 44.95 °E | Updated 25 minutes ago

Clear
Clear
88 °F
Feels Like 86 °F
N
6
Wind Variable Wind from South

Today
High -- | Low -- °F
--% Chance of Precip.
Yesterday
High -- | Low -- °F
Precip. -- in
6:29 AM 7:26 PM
Waning Gibbous, 48% visible
Pressure 30.04 in
Visibility -9999.0 miles
Clouds
Heat Index 86 °F
Dew Point 57 °F
Humidity 35%
Rainfall 0.00 in
Snow Depth Not available.
UV Not available.
Pollen Not available.
Air Quality Not available.
Flu Activity Not available.
METAR UGTB 051400Z 17005KT 140V200 CAVOK 31/14 Q1017 R13R/CLRD80 NOSIG
Pressure 30.04 in
Visibility -9999.0 miles
Clouds
Heat Index 86 °F
Dew Point 57 °F
Humidity 35%
Rainfall 0.00 in
Snow Depth Not available.
UV Not available.
Pollen Not available.
Air Quality Not available.
Flu Activity Not available.
METAR UGTB 051400Z 17005KT 140V200 CAVOK 31/14 Q1017 R13R/CLRD80 NOSIG

10-Day Weather Forecast

×

Almanac

Astronomy

Sep. 05, 2015 Rise Set
Actual Time
Civil Twilight
Nautical Twilight
Astronomical Twilight
Moon
Length of Visible Light
Length of Day
Tomorrow will be .
, % of the Moon is Illuminated

Today's Extremes

Country Highs Country Lows

Community

WunderPhotos

Upload Photos

1,852,473 photos uploaded!

WunderBlogs® & News

Nearby

Air Quality

  Air Quality AQ Index Pollutant
Not available.

Snow Depth

Station Depth Elevation

Earthquake Activity

City Distance Mag. Time & Date
Minimum magnitude displayed is 2.5.

Coastal Water Temperatures

Place Temperature

Stations

Nearby Weather Stations

Station Location Temp. Windchill Dew Point Humidity Wind Precip. Elev Updated Type